Monterrey Gen Maria, México

7:26 AM CDT en Octubre 02, 2014 (GMT -0500)
Gen Mariano Escobedo International | Change Station
CLOSE
Current Station
Aeropuerto
Location: Monterrey Gen Maria,
Altura: 1270 ft
Estaciones meteorológicas cercanas

Alt 1270 ft 25.78 °N, 100.11 °W | Updated 3 minutes ago

Overcast
Nublado
75 ° F
Sensación térmica 75 ° F
N
4
Viento Variable Viento desde ESE

Hoy
Alta -- | Baja -- ° F
--% Posibilidad de precipitaciones
Ayer
Alta -- | Baja -- ° F
Precip. -- pul
7:33 AM 7:25 PM
Cuarto creciente, 58% visible
Presión 29.85 pul
Visibilidad 3.0 Millas
Nubes Nubes dispersas 500 ft
Muy nublado 600 ft
Nublado 800 ft
Punto de rocío 72 ° F
Humedad 89%
Precipitaciones 0.00 pul
Espesor de la nieve No disponible.
UV 0 de una escala de 12
Polen No disponible.
Calidad del aire No disponible.
Flu Activity No disponible.
SPECI MMMY 021223Z 12003KT 3SM BR HZ SCT005 BKN006 OVC008 24/22 A2985 RMK 8/6//

More Conditions Fewer Conditions

Presión 29.85 pul
Visibilidad 3.0 Millas
Nubes Nubes dispersas 500 ft
Muy nublado 600 ft
Nublado 800 ft
Punto de rocío 72 ° F
Humedad 89%
Precipitaciones 0.00 pul
Espesor de la nieve No disponible.
UV 0 de una escala de 12
Polen No disponible.
Calidad del aire No disponible.
Flu Activity No disponible.
SPECI MMMY 021223Z 12003KT 3SM BR HZ SCT005 BKN006 OVC008 24/22 A2985 RMK 8/6//

More Conditions Fewer Conditions

10-Day Weather Forecast

Almanac

Astronomía

Oct. 02, 2014 Salida Puesta
Hora real 7:33 AM CDT 7:25 PM CDT
Crepúsculo civil 7:10 AM CDT 7:48 PM CDT
Crepúsculo náutico 6:43 AM CDT 8:15 PM CDT
Crepúsculo astronómico 6:16 AM CDT 8:42 PM CDT
Luna 3:03 PM CDT 1:23 AM CDT
Horas de luz 12h 38m
Horas de luz
11h 52m
Tomorrow will be 1m 29s shorter.
Cuarto creciente, 58% of the Moon is Illuminated
Hoy
Cuarto creciente
Oct 8
Luna llena
Oct 15
Cuarto menguante
Oct 23
Nueva
Oct 30
Cuarto creciente

Extremos de ayer

Máximos del país Bajas del país

Community

WunderPhotos

Upload Photos

1,758,223 ¡fotos cargadas!

WunderBlogs® & News

Nearby

Calidad del aire

Not available.

Grosos de nieve

Not available.

Actividad de terremotos

Ciudad Distance Mag. Tiempo y dato
No hay informes recientes de la actividad sísmica.
Magnitud mínima muestra es 2,5.

Temperaturas de aguas costeras

Lugar Temperatura
Sin partes meteorológicos de las estaciones

Estaciones meteorológicas cercanas